sensor_id;sensor_type;location;lat;lon;timestamp;pressure;altitude;pressure_sealevel;temperature;humidity
13968;BME280;39536;52.198;9.920;2023-04-04T00:01:00;102180.22;;;2.18;100.00
13968;BME280;39536;52.198;9.920;2023-04-04T00:03:26;102178.63;;;2.22;100.00
13968;BME280;39536;52.198;9.920;2023-04-04T00:05:53;102178.63;;;2.23;100.00
13968;BME280;39536;52.198;9.920;2023-04-04T00:08:19;102179.41;;;2.21;100.00
13968;BME280;39536;52.198;9.920;2023-04-04T00:10:47;102181.00;;;2.16;100.00
13968;BME280;39536;52.198;9.920;2023-04-04T00:13:14;102185.22;;;2.14;100.00
13968;BME280;39536;52.198;9.920;2023-04-04T00:15:40;102176.47;;;2.07;100.00
13968;BME280;39536;52.198;9.920;2023-04-04T00:18:07;102170.38;;;2.03;100.00
13968;BME280;39536;52.198;9.920;2023-04-04T00:20:33;102182.13;;;1.95;100.00
13968;BME280;39536;52.198;9.920;2023-04-04T00:23:00;102182.88;;;1.91;100.00
13968;BME280;39536;52.198;9.920;2023-04-04T00:25:26;102182.81;;;1.90;100.00
13968;BME280;39536;52.198;9.920;2023-04-04T00:27:54;102180.31;;;1.93;100.00
13968;BME280;39536;52.198;9.920;2023-04-04T00:30:24;102185.53;;;1.94;100.00
13968;BME280;39536;52.198;9.920;2023-04-04T00:32:51;102178.81;;;1.99;100.00
13968;BME280;39536;52.198;9.920;2023-04-04T00:35:17;102185.72;;;2.00;100.00
13968;BME280;39536;52.198;9.920;2023-04-04T00:37:44;102186.31;;;1.92;100.00
13968;BME280;39536;52.198;9.920;2023-04-04T00:40:10;102181.72;;;1.81;100.00
13968;BME280;39536;52.198;9.920;2023-04-04T00:42:37;102177.91;;;1.69;100.00
13968;BME280;39536;52.198;9.920;2023-04-04T00:45:07;102179.59;;;1.68;100.00
13968;BME280;39536;52.198;9.920;2023-04-04T00:47:33;102175.47;;;1.73;100.00
13968;BME280;39536;52.198;9.920;2023-04-04T00:50:00;102176.91;;;1.64;100.00
13968;BME280;39536;52.198;9.920;2023-04-04T00:52:27;102183.94;;;1.71;100.00
13968;BME280;39536;52.198;9.920;2023-04-04T00:54:54;102177.72;;;1.63;100.00
13968;BME280;39536;52.198;9.920;2023-04-04T00:57:21;102184.56;;;1.62;100.00
13968;BME280;39536;52.198;9.920;2023-04-04T00:59:48;102177.56;;;1.58;100.00
13968;BME280;39536;52.198;9.920;2023-04-04T01:02:17;102175.25;;;1.66;100.00
13968;BME280;39536;52.198;9.920;2023-04-04T01:04:43;102176.16;;;1.68;100.00
13968;BME280;39536;52.198;9.920;2023-04-04T01:07:11;102168.44;;;1.68;100.00
13968;BME280;39536;52.198;9.920;2023-04-04T01:09:38;102172.69;;;1.66;100.00
13968;BME280;39536;52.198;9.920;2023-04-04T01:12:05;102170.94;;;1.65;100.00
13968;BME280;39536;52.198;9.920;2023-04-04T01:14:32;102165.84;;;1.66;100.00
13968;BME280;39536;52.198;9.920;2023-04-04T01:16:59;102160.56;;;1.61;100.00
13968;BME280;39536;52.198;9.920;2023-04-04T01:19:29;102167.09;;;1.50;100.00
13968;BME280;39536;52.198;9.920;2023-04-04T01:21:58;102171.06;;;1.41;100.00
13968;BME280;39536;52.198;9.920;2023-04-04T01:24:27;102176.41;;;1.47;100.00
13968;BME280;39536;52.198;9.920;2023-04-04T01:26:59;102174.78;;;1.50;100.00
13968;BME280;39536;52.198;9.920;2023-04-04T01:29:26;102184.00;;;1.44;100.00
13968;BME280;39536;52.198;9.920;2023-04-04T01:31:55;102179.47;;;1.36;100.00
13968;BME280;39536;52.198;9.920;2023-04-04T01:34:30;102176.28;;;1.44;100.00
13968;BME280;39536;52.198;9.920;2023-04-04T01:37:05;102171.16;;;1.44;100.00
13968;BME280;39536;52.198;9.920;2023-04-04T01:39:36;102172.94;;;1.46;100.00
13968;BME280;39536;52.198;9.920;2023-04-04T01:42:07;102167.69;;;1.43;100.00
13968;BME280;39536;52.198;9.920;2023-04-04T01:44:34;102161.69;;;1.43;100.00
13968;BME280;39536;52.198;9.920;2023-04-04T01:47:04;102165.03;;;1.40;100.00
13968;BME280;39536;52.198;9.920;2023-04-04T01:49:31;102163.50;;;1.45;100.00
13968;BME280;39536;52.198;9.920;2023-04-04T01:51:57;102165.97;;;1.42;100.00
13968;BME280;39536;52.198;9.920;2023-04-04T01:54:25;102161.31;;;1.30;100.00
13968;BME280;39536;52.198;9.920;2023-04-04T01:56:52;102152.81;;;1.31;100.00
13968;BME280;39536;52.198;9.920;2023-04-04T01:59:20;102158.53;;;1.24;100.00
13968;BME280;39536;52.198;9.920;2023-04-04T02:01:46;102154.78;;;1.13;100.00
13968;BME280;39536;52.198;9.920;2023-04-04T02:04:13;102153.03;;;1.12;100.00
13968;BME280;39536;52.198;9.920;2023-04-04T02:06:39;102155.56;;;1.10;100.00
13968;BME280;39536;52.198;9.920;2023-04-04T02:09:05;102153.53;;;1.00;100.00
13968;BME280;39536;52.198;9.920;2023-04-04T02:11:32;102153.72;;;1.06;100.00
13968;BME280;39536;52.198;9.920;2023-04-04T02:13:59;102146.72;;;1.02;100.00
13968;BME280;39536;52.198;9.920;2023-04-04T02:16:26;102150.31;;;1.07;100.00
13968;BME280;39536;52.198;9.920;2023-04-04T02:18:53;102147.88;;;1.12;100.00
13968;BME280;39536;52.198;9.920;2023-04-04T02:21:22;102145.19;;;1.07;100.00
13968;BME280;39536;52.198;9.920;2023-04-04T02:23:50;102139.09;;;1.04;100.00
13968;BME280;39536;52.198;9.920;2023-04-04T02:26:16;102139.13;;;1.05;100.00
13968;BME280;39536;52.198;9.920;2023-04-04T02:28:43;102141.00;;;1.09;100.00
13968;BME280;39536;52.198;9.920;2023-04-04T02:31:09;102140.88;;;1.06;100.00
13968;BME280;39536;52.198;9.920;2023-04-04T02:33:37;102133.28;;;1.09;100.00
13968;BME280;39536;52.198;9.920;2023-04-04T02:36:04;102133.41;;;0.87;100.00
13968;BME280;39536;52.198;9.920;2023-04-04T02:38:31;102135.88;;;0.58;100.00
13968;BME280;39536;52.198;9.920;2023-04-04T02:40:57;102130.72;;;0.58;100.00
13968;BME280;39536;52.198;9.920;2023-04-04T02:43:24;102127.31;;;0.58;100.00
13968;BME280;39536;52.198;9.920;2023-04-04T02:45:50;102134.06;;;0.56;100.00
13968;BME280;39536;52.198;9.920;2023-04-04T02:48:16;102131.78;;;0.63;100.00
13968;BME280;39536;52.198;9.920;2023-04-04T02:50:45;102112.09;;;0.62;100.00
13968;BME280;39536;52.198;9.920;2023-04-04T02:53:11;102117.34;;;0.67;100.00
13968;BME280;39536;52.198;9.920;2023-04-04T02:55:38;102114.06;;;0.71;100.00
13968;BME280;39536;52.198;9.920;2023-04-04T02:58:05;102114.06;;;0.71;100.00
13968;BME280;39536;52.198;9.920;2023-04-04T03:00:31;102110.91;;;0.78;100.00
13968;BME280;39536;52.198;9.920;2023-04-04T03:02:58;102109.34;;;0.83;100.00
13968;BME280;39536;52.198;9.920;2023-04-04T03:05:25;102109.41;;;0.85;100.00
13968;BME280;39536;52.198;9.920;2023-04-04T03:07:54;102106.75;;;0.82;100.00
13968;BME280;39536;52.198;9.920;2023-04-04T03:10:21;102109.31;;;0.82;100.00
13968;BME280;39536;52.198;9.920;2023-04-04T03:12:48;102100.38;;;0.71;100.00
13968;BME280;39536;52.198;9.920;2023-04-04T03:15:14;102099.16;;;0.59;100.00
13968;BME280;39536;52.198;9.920;2023-04-04T03:17:41;102096.75;;;0.64;100.00
13968;BME280;39536;52.198;9.920;2023-04-04T03:20:09;102089.16;;;0.67;100.00
13968;BME280;39536;52.198;9.920;2023-04-04T03:22:35;102084.78;;;0.64;100.00
13968;BME280;39536;52.198;9.920;2023-04-04T03:25:04;102091.41;;;0.58;100.00
13968;BME280;39536;52.198;9.920;2023-04-04T03:27:30;102087.16;;;0.58;100.00
13968;BME280;39536;52.198;9.920;2023-04-04T03:29:57;102087.91;;;0.56;100.00
13968;BME280;39536;52.198;9.920;2023-04-04T03:32:24;102080.72;;;0.44;100.00
13968;BME280;39536;52.198;9.920;2023-04-04T03:34:50;102090.16;;;0.46;100.00
13968;BME280;39536;52.198;9.920;2023-04-04T03:37:17;102089.69;;;0.57;100.00
13968;BME280;39536;52.198;9.920;2023-04-04T03:39:43;102086.38;;;0.61;100.00
13968;BME280;39536;52.198;9.920;2023-04-04T03:42:11;102090.53;;;0.57;100.00
13968;BME280;39536;52.198;9.920;2023-04-04T03:44:39;102084.25;;;0.48;100.00
13968;BME280;39536;52.198;9.920;2023-04-04T03:47:05;102085.97;;;0.49;100.00
13968;BME280;39536;52.198;9.920;2023-04-04T03:49:32;102071.03;;;0.37;100.00
13968;BME280;39536;52.198;9.920;2023-04-04T03:51:59;102073.06;;;0.45;100.00
13968;BME280;39536;52.198;9.920;2023-04-04T03:54:27;102080.09;;;0.51;100.00
13968;BME280;39536;52.198;9.920;2023-04-04T03:56:53;102064.63;;;0.50;100.00
13968;BME280;39536;52.198;9.920;2023-04-04T03:59:22;102070.91;;;0.58;100.00
13968;BME280;39536;52.198;9.920;2023-04-04T04:01:48;102073.44;;;0.56;100.00
13968;BME280;39536;52.198;9.920;2023-04-04T04:04:15;102071.47;;;0.49;100.00
13968;BME280;39536;52.198;9.920;2023-04-04T04:06:41;102072.41;;;0.51;100.00
13968;BME280;39536;52.198;9.920;2023-04-04T04:09:08;102078.38;;;0.52;100.00
13968;BME280;39536;52.198;9.920;2023-04-04T04:11:35;102069.72;;;0.48;100.00
13968;BME280;39536;52.198;9.920;2023-04-04T04:14:01;102065.38;;;0.45;100.00
13968;BME280;39536;52.198;9.920;2023-04-04T04:16:29;102066.75;;;0.36;100.00
13968;BME280;39536;52.198;9.920;2023-04-04T04:18:57;102066.13;;;0.43;100.00
13968;BME280;39536;52.198;9.920;2023-04-04T04:21:23;102070.34;;;0.41;100.00
13968;BME280;39536;52.198;9.920;2023-04-04T04:23:50;102071.81;;;0.34;100.00
13968;BME280;39536;52.198;9.920;2023-04-04T04:26:17;102071.63;;;0.28;100.00
13968;BME280;39536;52.198;9.920;2023-04-04T04:28:44;102071.44;;;0.23;100.00
13968;BME280;39536;52.198;9.920;2023-04-04T04:31:12;102068.78;;;0.20;100.00
13968;BME280;39536;52.198;9.920;2023-04-04T04:33:40;102068.75;;;0.19;100.00
13968;BME280;39536;52.198;9.920;2023-04-04T04:36:06;102067.97;;;0.21;100.00
13968;BME280;39536;52.198;9.920;2023-04-04T04:38:33;102067.16;;;0.22;100.00
13968;BME280;39536;52.198;9.920;2023-04-04T04:40:59;102065.41;;;0.21;100.00
13968;BME280;39536;52.198;9.920;2023-04-04T04:43:26;102068.06;;;0.25;100.00
13968;BME280;39536;52.198;9.920;2023-04-04T04:45:52;102066.97;;;0.18;100.00
13968;BME280;39536;52.198;9.920;2023-04-04T04:48:19;102076.22;;;0.13;100.00
13968;BME280;39536;52.198;9.920;2023-04-04T04:50:47;102074.63;;;0.16;100.00
13968;BME280;39536;52.198;9.920;2023-04-04T04:53:13;102074.03;;;-0.01;100.00
13968;BME280;39536;52.198;9.920;2023-04-04T04:55:40;102073.88;;;-0.05;100.00
13968;BME280;39536;52.198;9.920;2023-04-04T04:58:08;102067.31;;;0.03;100.00
13968;BME280;39536;52.198;9.920;2023-04-04T05:00:35;102075.19;;;0.08;100.00
13968;BME280;39536;52.198;9.920;2023-04-04T05:03:01;102070.09;;;0.09;100.00
13968;BME280;39536;52.198;9.920;2023-04-04T05:05:31;102078.81;;;0.14;100.00
13968;BME280;39536;52.198;9.920;2023-04-04T05:07:59;102074.84;;;-0.02;100.00
13968;BME280;39536;52.198;9.920;2023-04-04T05:10:26;102075.72;;;-0.01;100.00
13968;BME280;39536;52.198;9.920;2023-04-04T05:12:53;102078.50;;;0.05;100.00
13968;BME280;39536;52.198;9.920;2023-04-04T05:15:19;102071.91;;;0.12;100.00
13968;BME280;39536;52.198;9.920;2023-04-04T05:17:46;102080.94;;;0.02;100.00
13968;BME280;39536;52.198;9.920;2023-04-04T05:20:13;102084.56;;;0.07;100.00
13968;BME280;39536;52.198;9.920;2023-04-04T05:22:41;102094.19;;;0.14;100.00
13968;BME280;39536;52.198;9.920;2023-04-04T05:25:10;102097.06;;;0.23;100.00
13968;BME280;39536;52.198;9.920;2023-04-04T05:27:37;102098.78;;;0.23;100.00
13968;BME280;39536;52.198;9.920;2023-04-04T05:30:05;102099.75;;;0.27;100.00
13968;BME280;39536;52.198;9.920;2023-04-04T05:32:32;102102.81;;;0.16;100.00
13968;BME280;39536;52.198;9.920;2023-04-04T05:34:59;102104.03;;;0.28;100.00
13968;BME280;39536;52.198;9.920;2023-04-04T05:37:25;102105.69;;;0.26;100.00
13968;BME280;39536;52.198;9.920;2023-04-04T05:39:51;102102.31;;;0.27;100.00
13968;BME280;39536;52.198;9.920;2023-04-04T05:42:19;102107.53;;;0.30;100.00
13968;BME280;39536;52.198;9.920;2023-04-04T05:44:45;102110.72;;;0.22;100.00
13968;BME280;39536;52.198;9.920;2023-04-04T05:47:12;102118.34;;;0.21;100.00
13968;BME280;39536;52.198;9.920;2023-04-04T05:49:38;102112.78;;;0.33;100.00
13968;BME280;39536;52.198;9.920;2023-04-04T05:52:05;102119.25;;;0.47;100.00
13968;BME280;39536;52.198;9.920;2023-04-04T05:54:31;102120.53;;;0.60;100.00
13968;BME280;39536;52.198;9.920;2023-04-04T05:56:58;102114.66;;;0.62;100.00
13968;BME280;39536;52.198;9.920;2023-04-04T05:59:26;102114.59;;;0.61;100.00
13968;BME280;39536;52.198;9.920;2023-04-04T06:01:52;102116.53;;;0.68;100.00
13968;BME280;39536;52.198;9.920;2023-04-04T06:04:19;102115.00;;;0.73;100.00
13968;BME280;39536;52.198;9.920;2023-04-04T06:06:45;102119.47;;;0.79;100.00
13968;BME280;39536;52.198;9.920;2023-04-04T06:09:12;102122.72;;;0.75;100.00
13968;BME280;39536;52.198;9.920;2023-04-04T06:11:38;102120.44;;;0.82;100.00
13968;BME280;39536;52.198;9.920;2023-04-04T06:14:05;102124.16;;;0.92;100.00
13968;BME280;39536;52.198;9.920;2023-04-04T06:16:33;102132.19;;;1.03;100.00
13968;BME280;39536;52.198;9.920;2023-04-04T06:19:00;102117.72;;;1.05;100.00
13968;BME280;39536;52.198;9.920;2023-04-04T06:21:27;102117.59;;;1.00;100.00
13968;BME280;39536;52.198;9.920;2023-04-04T06:23:53;102127.56;;;0.91;100.00
13968;BME280;39536;52.198;9.920;2023-04-04T06:26:20;102127.06;;;1.03;100.00
13968;BME280;39536;52.198;9.920;2023-04-04T06:28:46;102131.69;;;1.13;100.00
13968;BME280;39536;52.198;9.920;2023-04-04T06:31:17;102127.72;;;1.23;100.00
13968;BME280;39536;52.198;9.920;2023-04-04T06:33:44;102124.41;;;1.27;100.00
13968;BME280;39536;52.198;9.920;2023-04-04T06:36:11;102127.41;;;1.41;100.00
13968;BME280;39536;52.198;9.920;2023-04-04T06:38:37;102136.97;;;1.46;100.00
13968;BME280;39536;52.198;9.920;2023-04-04T06:41:04;102123.44;;;1.50;100.00
13968;BME280;39536;52.198;9.920;2023-04-04T06:43:30;102134.38;;;1.45;100.00
13968;BME280;39536;52.198;9.920;2023-04-04T06:45:57;102125.22;;;1.53;100.00
13968;BME280;39536;52.198;9.920;2023-04-04T06:48:24;102133.22;;;1.62;100.00
13968;BME280;39536;52.198;9.920;2023-04-04T06:50:52;102131.50;;;1.63;100.00
13968;BME280;39536;52.198;9.920;2023-04-04T06:53:18;102137.72;;;1.71;100.00
13968;BME280;39536;52.198;9.920;2023-04-04T06:55:45;102129.16;;;1.70;100.00
13968;BME280;39536;52.198;9.920;2023-04-04T06:58:12;102124.25;;;1.78;100.00
13968;BME280;39536;52.198;9.920;2023-04-04T07:00:38;102129.47;;;1.81;100.00
13968;BME280;39536;52.198;9.920;2023-04-04T07:03:05;102128.03;;;1.91;100.00
13968;BME280;39536;52.198;9.920;2023-04-04T07:05:31;102131.13;;;2.09;100.00
13968;BME280;39536;52.198;9.920;2023-04-04T07:07:59;102133.03;;;2.16;100.00
13968;BME280;39536;52.198;9.920;2023-04-04T07:10:25;102131.75;;;2.32;100.00
13968;BME280;39536;52.198;9.920;2023-04-04T07:12:52;102132.16;;;2.47;100.00
13968;BME280;39536;52.198;9.920;2023-04-04T07:15:18;102142.53;;;2.50;100.00
13968;BME280;39536;52.198;9.920;2023-04-04T07:17:44;102140.63;;;2.43;100.00
13968;BME280;39536;52.198;9.920;2023-04-04T07:20:11;102138.97;;;2.45;100.00
13968;BME280;39536;52.198;9.920;2023-04-04T07:22:38;102144.25;;;2.51;100.00
13968;BME280;39536;52.198;9.920;2023-04-04T07:25:07;102138.41;;;2.57;100.00
13968;BME280;39536;52.198;9.920;2023-04-04T07:27:34;102135.06;;;2.60;100.00
13968;BME280;39536;52.198;9.920;2023-04-04T07:30:19;102147.13;;;2.62;100.00
13968;BME280;39536;52.198;9.920;2023-04-04T07:32:55;102141.81;;;2.56;100.00
13968;BME280;39536;52.198;9.920;2023-04-04T07:35:24;102142.72;;;2.58;100.00
13968;BME280;39536;52.198;9.920;2023-04-04T07:37:59;102133.25;;;2.56;100.00
13968;BME280;39536;52.198;9.920;2023-04-04T07:40:26;102135.53;;;2.78;100.00
13968;BME280;39536;52.198;9.920;2023-04-04T07:42:53;102141.63;;;2.82;100.00
13968;BME280;39536;52.198;9.920;2023-04-04T07:45:19;102132.00;;;3.09;100.00
13968;BME280;39536;52.198;9.920;2023-04-04T07:47:47;102130.53;;;3.20;100.00
13968;BME280;39536;52.198;9.920;2023-04-04T07:50:14;102128.16;;;3.30;100.00
13968;BME280;39536;52.198;9.920;2023-04-04T07:52:41;102130.78;;;3.31;100.00
13968;BME280;39536;52.198;9.920;2023-04-04T07:55:13;102128.22;;;3.31;100.00
13968;BME280;39536;52.198;9.920;2023-04-04T07:57:44;102124.31;;;3.48;100.00
13968;BME280;39536;52.198;9.920;2023-04-04T08:00:21;102121.91;;;3.56;100.00
13968;BME280;39536;52.198;9.920;2023-04-04T08:02:51;102124.75;;;3.68;100.00
13968;BME280;39536;52.198;9.920;2023-04-04T08:05:26;102120.59;;;3.75;100.00
13968;BME280;39536;52.198;9.920;2023-04-04T08:07:54;102127.66;;;3.84;100.00
13968;BME280;39536;52.198;9.920;2023-04-04T08:10:21;102126.25;;;4.00;100.00
13968;BME280;39536;52.198;9.920;2023-04-04T08:12:55;102114.13;;;3.96;100.00
13968;BME280;39536;52.198;9.920;2023-04-04T08:15:32;102116.81;;;4.02;100.00
13968;BME280;39536;52.198;9.920;2023-04-04T08:17:59;102124.13;;;4.23;100.00
13968;BME280;39536;52.198;9.920;2023-04-04T08:20:26;102119.94;;;4.28;100.00
13968;BME280;39536;52.198;9.920;2023-04-04T08:22:53;102120.91;;;4.34;100.00
13968;BME280;39536;52.198;9.920;2023-04-04T08:25:20;102121.13;;;4.47;100.00
13968;BME280;39536;52.198;9.920;2023-04-04T08:27:47;102115.50;;;4.68;100.00
13968;BME280;39536;52.198;9.920;2023-04-04T08:30:15;102121.72;;;4.80;100.00
13968;BME280;39536;52.198;9.920;2023-04-04T08:32:42;102122.38;;;4.69;100.00
13968;BME280;39536;52.198;9.920;2023-04-04T08:35:10;102116.47;;;4.74;100.00
13968;BME280;39536;52.198;9.920;2023-04-04T08:37:37;102112.16;;;4.76;100.00
13968;BME280;39536;52.198;9.920;2023-04-04T08:40:05;102112.38;;;4.89;100.00
13968;BME280;39536;52.198;9.920;2023-04-04T08:42:32;102113.53;;;5.06;100.00
13968;BME280;39536;52.198;9.920;2023-04-04T08:45:00;102114.53;;;5.14;100.00
13968;BME280;39536;52.198;9.920;2023-04-04T08:47:30;102111.94;;;5.14;100.00
13968;BME280;39536;52.198;9.920;2023-04-04T08:49:58;102105.25;;;5.28;100.00
13968;BME280;39536;52.198;9.920;2023-04-04T08:52:27;102106.38;;;5.47;100.00
13968;BME280;39536;52.198;9.920;2023-04-04T08:54:55;102103.06;;;5.57;100.00
13968;BME280;39536;52.198;9.920;2023-04-04T08:57:22;102100.34;;;5.45;100.00
13968;BME280;39536;52.198;9.920;2023-04-04T08:59:49;102104.84;;;5.63;100.00
13968;BME280;39536;52.198;9.920;2023-04-04T09:02:23;102102.53;;;5.83;100.00
13968;BME280;39536;52.198;9.920;2023-04-04T09:04:53;102095.66;;;5.84;99.36
13968;BME280;39536;52.198;9.920;2023-04-04T09:07:21;102102.97;;;5.48;96.47
13968;BME280;39536;52.198;9.920;2023-04-04T09:09:49;102106.25;;;5.38;94.36
13968;BME280;39536;52.198;9.920;2023-04-04T09:12:17;102101.56;;;5.13;89.93
13968;BME280;39536;52.198;9.920;2023-04-04T09:14:45;102102.34;;;5.07;91.53
13968;BME280;39536;52.198;9.920;2023-04-04T09:17:12;102101.19;;;4.88;94.77
13968;BME280;39536;52.198;9.920;2023-04-04T09:19:39;102098.69;;;4.93;99.57
13968;BME280;39536;52.198;9.920;2023-04-04T09:22:07;102104.56;;;4.85;95.43
13968;BME280;39536;52.198;9.920;2023-04-04T09:24:37;102096.13;;;4.94;95.98
13968;BME280;39536;52.198;9.920;2023-04-04T09:27:06;102091.16;;;5.06;94.98
13968;BME280;39536;52.198;9.920;2023-04-04T09:29:32;102089.88;;;5.38;97.67
13968;BME280;39536;52.198;9.920;2023-04-04T09:31:59;102081.59;;;5.63;98.19
13968;BME280;39536;52.198;9.920;2023-04-04T09:34:27;102082.72;;;5.84;95.88
13968;BME280;39536;52.198;9.920;2023-04-04T09:36:54;102075.34;;;6.14;95.03
13968;BME280;39536;52.198;9.920;2023-04-04T09:39:23;102091.03;;;6.30;90.78
13968;BME280;39536;52.198;9.920;2023-04-04T09:41:50;102093.63;;;6.30;89.00
13968;BME280;39536;52.198;9.920;2023-04-04T09:44:17;102086.75;;;6.35;90.13
13968;BME280;39536;52.198;9.920;2023-04-04T09:46:43;102092.97;;;6.52;91.49
13968;BME280;39536;52.198;9.920;2023-04-04T09:49:11;102091.38;;;6.69;90.39
13968;BME280;39536;52.198;9.920;2023-04-04T09:51:47;102091.41;;;6.71;85.74
13968;BME280;39536;52.198;9.920;2023-04-04T09:54:19;102092.97;;;6.52;83.93
13968;BME280;39536;52.198;9.920;2023-04-04T09:56:48;102085.31;;;6.69;80.20
13968;BME280;39536;52.198;9.920;2023-04-04T09:59:15;102089.66;;;6.68;80.67
13968;BME280;39536;52.198;9.920;2023-04-04T10:01:42;102084.31;;;6.50;84.96
13968;BME280;39536;52.198;9.920;2023-04-04T10:04:09;102086.06;;;6.53;86.99
13968;BME280;39536;52.198;9.920;2023-04-04T10:06:36;102087.16;;;6.79;86.23
13968;BME280;39536;52.198;9.920;2023-04-04T10:09:03;102090.78;;;7.06;82.07
13968;BME280;39536;52.198;9.920;2023-04-04T10:11:31;102086.56;;;7.17;77.29
13968;BME280;39536;52.198;9.920;2023-04-04T10:14:00;102086.69;;;7.38;76.98
13968;BME280;39536;52.198;9.920;2023-04-04T10:16:30;102088.41;;;7.36;76.41
13968;BME280;39536;52.198;9.920;2023-04-04T10:18:57;102090.94;;;7.27;74.95
13968;BME280;39536;52.198;9.920;2023-04-04T10:21:26;102087.50;;;7.34;75.72
13968;BME280;39536;52.198;9.920;2023-04-04T10:23:53;102087.56;;;7.44;76.27
13968;BME280;39536;52.198;9.920;2023-04-04T10:26:20;102085.03;;;7.48;72.25
13968;BME280;39536;52.198;9.920;2023-04-04T10:28:47;102078.97;;;7.52;69.99
13968;BME280;39536;52.198;9.920;2023-04-04T10:31:21;102079.91;;;7.60;67.58
13968;BME280;39536;52.198;9.920;2023-04-04T10:33:52;102082.38;;;7.42;75.31
13968;BME280;39536;52.198;9.920;2023-04-04T10:36:22;102077.25;;;7.51;76.41
13968;BME280;39536;52.198;9.920;2023-04-04T10:38:57;102074.69;;;7.54;76.15
13968;BME280;39536;52.198;9.920;2023-04-04T10:41:32;102071.28;;;7.74;73.76
13968;BME280;39536;52.198;9.920;2023-04-04T10:44:13;102067.81;;;7.72;67.56
13968;BME280;39536;52.198;9.920;2023-04-04T10:46:45;102063.25;;;7.18;70.88
13968;BME280;39536;52.198;9.920;2023-04-04T10:49:13;102063.97;;;6.98;70.08
13968;BME280;39536;52.198;9.920;2023-04-04T10:51:40;102036.25;;;6.83;71.64
13968;BME280;39536;52.198;9.920;2023-04-04T10:54:08;102048.56;;;7.22;79.12
13968;BME280;39536;52.198;9.920;2023-04-04T10:56:35;102058.28;;;7.66;78.61
13968;BME280;39536;52.198;9.920;2023-04-04T10:59:10;102048.03;;;7.98;74.52
13968;BME280;39536;52.198;9.920;2023-04-04T11:01:49;102049.72;;;7.93;70.19
13968;BME280;39536;52.198;9.920;2023-04-04T11:04:17;102035.91;;;7.96;65.96
13968;BME280;39536;52.198;9.920;2023-04-04T11:07:03;102036.59;;;7.47;64.37
13968;BME280;39536;52.198;9.920;2023-04-04T11:09:52;102039.34;;;7.79;72.92
13968;BME280;39536;52.198;9.920;2023-04-04T11:12:20;102035.91;;;8.06;67.09
13968;BME280;39536;52.198;9.920;2023-04-04T11:14:54;102028.22;;;8.40;70.67
13968;BME280;39536;52.198;9.920;2023-04-04T11:17:40;102031.69;;;8.51;67.56
13968;BME280;39536;52.198;9.920;2023-04-04T11:20:07;102016.03;;;8.25;60.74
13968;BME280;39536;52.198;9.920;2023-04-04T11:22:34;102019.50;;;8.18;63.65
13968;BME280;39536;52.198;9.920;2023-04-04T11:25:32;102014.28;;;7.86;67.81
13968;BME280;39536;52.198;9.920;2023-04-04T11:28:04;102013.44;;;8.05;72.39
13968;BME280;39536;52.198;9.920;2023-04-04T11:30:31;102018.66;;;8.33;74.23
13968;BME280;39536;52.198;9.920;2023-04-04T11:33:03;102009.16;;;8.64;69.74
13968;BME280;39536;52.198;9.920;2023-04-04T11:35:29;102008.25;;;9.00;64.72
13968;BME280;39536;52.198;9.920;2023-04-04T11:37:59;102002.13;;;9.17;58.77
13968;BME280;39536;52.198;9.920;2023-04-04T11:40:34;101991.75;;;9.17;61.65
13968;BME280;39536;52.198;9.920;2023-04-04T11:43:06;101985.59;;;9.36;59.88
13968;BME280;39536;52.198;9.920;2023-04-04T11:45:34;101992.44;;;9.54;62.75
13968;BME280;39536;52.198;9.920;2023-04-04T11:48:04;101985.47;;;9.56;54.60
13968;BME280;39536;52.198;9.920;2023-04-04T11:50:35;101992.53;;;9.39;51.20
13968;BME280;39536;52.198;9.920;2023-04-04T11:53:04;101983.78;;;9.54;55.10
13968;BME280;39536;52.198;9.920;2023-04-04T11:55:31;101986.19;;;9.84;52.61
13968;BME280;39536;52.198;9.920;2023-04-04T11:58:04;101976.59;;;9.92;51.11
13968;BME280;39536;52.198;9.920;2023-04-04T12:00:32;101973.09;;;10.00;51.51
13968;BME280;39536;52.198;9.920;2023-04-04T12:03:00;101973.97;;;9.99;54.45
13968;BME280;39536;52.198;9.920;2023-04-04T12:05:28;101966.97;;;10.05;54.45
13968;BME280;39536;52.198;9.920;2023-04-04T12:07:55;101962.59;;;10.10;52.03
13968;BME280;39536;52.198;9.920;2023-04-04T12:10:21;101957.75;;;9.57;49.11
13968;BME280;39536;52.198;9.920;2023-04-04T12:12:48;101963.22;;;8.89;52.81
13968;BME280;39536;52.198;9.920;2023-04-04T12:15:15;101959.81;;;8.21;52.59
13968;BME280;39536;52.198;9.920;2023-04-04T12:17:42;101966.78;;;8.45;59.98
13968;BME280;39536;52.198;9.920;2023-04-04T12:20:10;101957.19;;;8.86;63.09
13968;BME280;39536;52.198;9.920;2023-04-04T12:22:39;101956.22;;;9.16;62.43
13968;BME280;39536;52.198;9.920;2023-04-04T12:25:06;101943.06;;;9.48;59.25
13968;BME280;39536;52.198;9.920;2023-04-04T12:27:33;101945.81;;;9.16;56.20
13968;BME280;39536;52.198;9.920;2023-04-04T12:30:00;101941.38;;;9.36;56.70
13968;BME280;39536;52.198;9.920;2023-04-04T12:32:28;101938.69;;;9.52;62.42
13968;BME280;39536;52.198;9.920;2023-04-04T12:34:59;101935.94;;;9.75;59.11
13968;BME280;39536;52.198;9.920;2023-04-04T12:37:28;101938.00;;;9.20;56.17
13968;BME280;39536;52.198;9.920;2023-04-04T12:39:56;101929.28;;;9.32;60.70
13968;BME280;39536;52.198;9.920;2023-04-04T12:42:23;101928.44;;;9.24;62.19
13968;BME280;39536;52.198;9.920;2023-04-04T12:44:51;101935.16;;;9.65;63.72
13968;BME280;39536;52.198;9.920;2023-04-04T12:47:18;101927.09;;;10.02;59.29
13968;BME280;39536;52.198;9.920;2023-04-04T12:49:48;101925.16;;;10.25;56.19
13968;BME280;39536;52.198;9.920;2023-04-04T12:52:19;101922.47;;;10.40;55.06
13968;BME280;39536;52.198;9.920;2023-04-04T12:54:47;101909.25;;;10.56;50.32
13968;BME280;39536;52.198;9.920;2023-04-04T12:57:19;101913.78;;;10.37;49.13